Time;durP1;ratioP1;P1;durP2;ratioP2;P2;SDS_P1;SDS_P2;PMS_P1;PMS_P2;Temp;Humidity;BMP_temperature;BMP_pressure;BME280_temperature;BME280_humidity;BME280_pressure;Samples;Min_cycle;Max_cycle;Signal;HPM_P1;HPM_P2
2021/05/20 00:01:34;;;;;;;;;;;5.50;97.00;;;;;;5040981;28;19924;-69
2021/05/20 00:03:59;;;;;;;;;;;5.40;97.00;;;;;;5061212;28;19935;-67
2021/05/20 00:06:27;;;;;;;;;;;5.30;97.00;;;;;;5061695;28;19920;-69
2021/05/20 00:08:52;;;;;;;;;;;5.20;97.00;;;;;;5059204;28;19923;-68
2021/05/20 00:11:18;;;;;;;;;;;5.10;96.90;;;;;;5061114;28;19913;-69
2021/05/20 00:13:43;;;;;;;;;;;5.10;97.00;;;;;;5059683;28;19916;-67
2021/05/20 00:16:09;;;;;;;;;;;5.10;97.00;;;;;;5061413;28;19947;-68
2021/05/20 00:18:34;;;;;;;;;;;5.00;97.00;;;;;;5062361;28;19995;-69
2021/05/20 00:21:00;;;;;;;;;;;5.00;97.10;;;;;;5060641;28;20088;-68
2021/05/20 00:23:25;;;;;;;;;;;5.00;96.90;;;;;;5060591;28;19921;-68
2021/05/20 00:25:51;;;;;;;;;;;4.90;96.90;;;;;;5060338;28;20373;-69
2021/05/20 00:28:16;;;;;;;;;;;4.90;97.00;;;;;;5063298;28;20537;-68
2021/05/20 00:30:42;;;;;;;;;;;4.90;96.90;;;;;;5057659;28;19913;-68
2021/05/20 00:33:07;;;;;;;;;;;4.80;96.80;;;;;;5063864;28;19924;-69
2021/05/20 00:35:33;;;;;;;;;;;4.70;96.80;;;;;;5063584;28;20084;-68
2021/05/20 00:37:58;;;;;;;;;;;4.60;96.80;;;;;;5063216;28;19923;-68
2021/05/20 00:40:24;;;;;;;;;;;4.60;96.70;;;;;;5059151;28;20252;-70
2021/05/20 00:42:49;;;;;;;;;;;4.60;96.70;;;;;;5060471;28;19919;-67
2021/05/20 00:45:15;;;;;;;;;;;4.60;96.70;;;;;;5061340;28;20387;-68
2021/05/20 00:47:40;;;;;;;;;;;4.50;96.80;;;;;;5060749;28;19919;-68
2021/05/20 00:50:07;;;;;;;;;;;4.60;97.00;;;;;;5061162;28;19920;-67
2021/05/20 00:52:33;;;;;;;;;;;4.60;97.00;;;;;;5061789;28;20147;-69
2021/05/20 00:54:59;;;;;;;;;;;4.60;97.10;;;;;;5040963;28;20694;-68
2021/05/20 00:57:25;;;;;;;;;;;4.60;97.10;;;;;;5064896;28;19924;-68
2021/05/20 00:59:51;;;;;;;;;;;4.80;97.20;;;;;;5059579;28;19978;-68
2021/05/20 01:02:17;;;;;;;;;;;4.90;97.30;;;;;;5063579;28;19927;-68
2021/05/20 01:04:43;;;;;;;;;;;5.00;97.20;;;;;;5063208;28;19916;-67
2021/05/20 01:07:09;;;;;;;;;;;5.10;97.30;;;;;;5065172;28;20378;-68
2021/05/20 01:09:37;;;;;;;;;;;5.10;97.30;;;;;;5065138;28;19930;-69
2021/05/20 01:12:03;;;;;;;;;;;5.20;97.40;;;;;;5062866;28;20296;-68
2021/05/20 01:14:29;;;;;;;;;;;5.20;97.40;;;;;;5064638;28;20329;-67
2021/05/20 01:16:54;;;;;;;;;;;5.20;97.40;;;;;;5061944;28;19968;-69
2021/05/20 01:19:20;;;;;;;;;;;5.20;97.50;;;;;;5066971;28;19968;-67
2021/05/20 01:21:45;;;;;;;;;;;5.20;97.40;;;;;;5065628;28;19916;-69
2021/05/20 01:24:11;;;;;;;;;;;5.10;97.40;;;;;;5062161;28;19923;-70
2021/05/20 01:26:37;;;;;;;;;;;5.00;97.50;;;;;;5061429;28;19913;-70
2021/05/20 01:29:03;;;;;;;;;;;4.90;97.40;;;;;;5063430;28;20332;-69
2021/05/20 01:31:29;;;;;;;;;;;4.80;97.50;;;;;;5047476;28;19936;-67
2021/05/20 01:33:55;;;;;;;;;;;4.70;97.40;;;;;;5066767;28;20015;-68
2021/05/20 01:36:24;;;;;;;;;;;4.70;97.40;;;;;;5067544;28;20015;-68
2021/05/20 01:38:50;;;;;;;;;;;4.60;97.40;;;;;;5069881;28;19920;-68
2021/05/20 01:41:16;;;;;;;;;;;4.60;97.40;;;;;;5066522;28;20562;-69
2021/05/20 01:43:41;;;;;;;;;;;4.60;97.40;;;;;;5063796;28;19928;-68
2021/05/20 01:46:07;;;;;;;;;;;4.40;97.20;;;;;;5063946;28;19916;-68
2021/05/20 01:48:43;;;;;;;;;;;4.40;97.30;;;;;;5055874;28;19912;-68
2021/05/20 01:51:10;;;;;;;;;;;4.30;97.30;;;;;;5065401;28;20201;-69
2021/05/20 01:53:36;;;;;;;;;;;4.30;97.30;;;;;;5067921;28;20365;-68
2021/05/20 01:56:02;;;;;;;;;;;4.20;97.30;;;;;;5064325;28;20334;-69
2021/05/20 01:58:28;;;;;;;;;;;4.20;97.40;;;;;;5068261;28;19996;-68
2021/05/20 02:00:53;;;;;;;;;;;4.20;97.40;;;;;;5065666;28;20269;-68
2021/05/20 02:03:19;;;;;;;;;;;4.30;97.40;;;;;;5063629;28;19912;-68
2021/05/20 02:05:44;;;;;;;;;;;4.30;97.40;;;;;;5066557;28;19917;-67
2021/05/20 02:08:10;;;;;;;;;;;4.30;97.40;;;;;;5072117;28;19934;-70
2021/05/20 02:10:36;;;;;;;;;;;4.30;97.50;;;;;;5065401;28;19993;-67
2021/05/20 02:13:01;;;;;;;;;;;4.40;97.60;;;;;;5068531;28;19920;-67
2021/05/20 02:15:27;;;;;;;;;;;4.40;97.50;;;;;;5048519;28;19931;-67
2021/05/20 02:17:53;;;;;;;;;;;4.40;97.60;;;;;;5066623;28;20362;-67
2021/05/20 02:20:20;;;;;;;;;;;4.50;97.60;;;;;;5065605;28;19920;-69
2021/05/20 02:22:45;;;;;;;;;;;4.40;97.60;;;;;;5064480;28;19924;-66
2021/05/20 02:25:11;;;;;;;;;;;4.40;97.70;;;;;;5064335;28;19957;-67
2021/05/20 02:27:36;;;;;;;;;;;4.40;97.70;;;;;;5063174;28;19926;-67
2021/05/20 02:30:03;;;;;;;;;;;4.40;97.70;;;;;;5073119;28;19912;-67
2021/05/20 02:32:28;;;;;;;;;;;4.30;97.70;;;;;;5065260;28;19927;-66
2021/05/20 02:34:54;;;;;;;;;;;4.30;97.70;;;;;;5064278;28;19916;-67
2021/05/20 02:37:19;;;;;;;;;;;4.30;97.70;;;;;;5066529;28;20013;-67
2021/05/20 02:39:45;;;;;;;;;;;4.40;97.70;;;;;;5065386;28;20003;-66
2021/05/20 02:42:10;;;;;;;;;;;4.40;97.70;;;;;;5063006;28;19923;-67
2021/05/20 02:44:36;;;;;;;;;;;4.40;97.60;;;;;;5064456;28;19936;-67
2021/05/20 02:47:01;;;;;;;;;;;4.30;97.60;;;;;;5064728;28;19939;-68
2021/05/20 02:49:27;;;;;;;;;;;4.30;97.60;;;;;;5063640;28;20336;-67
2021/05/20 02:51:52;;;;;;;;;;;4.20;97.60;;;;;;5065608;28;19931;-67
2021/05/20 02:54:18;;;;;;;;;;;4.30;97.70;;;;;;5064307;28;19917;-67
2021/05/20 02:56:43;;;;;;;;;;;4.40;97.80;;;;;;5063070;28;20027;-67
2021/05/20 02:59:10;;;;;;;;;;;4.40;97.90;;;;;;5066348;28;19927;-68
2021/05/20 03:01:40;;;;;;;;;;;4.40;97.90;;;;;;5063598;28;19924;-68
2021/05/20 03:04:05;;;;;;;;;;;4.40;97.90;;;;;;5063967;28;19964;-68
2021/05/20 03:06:31;;;;;;;;;;;4.40;98.00;;;;;;5066695;28;20004;-66
2021/05/20 03:08:57;;;;;;;;;;;4.50;98.10;;;;;;5073153;28;19916;-67
2021/05/20 03:11:24;;;;;;;;;;;4.50;98.00;;;;;;5063543;28;19931;-67
2021/05/20 03:13:50;;;;;;;;;;;4.60;98.20;;;;;;5064942;28;19916;-68
2021/05/20 03:16:15;;;;;;;;;;;4.60;98.20;;;;;;5063938;28;20393;-67
2021/05/20 03:18:41;;;;;;;;;;;4.60;98.20;;;;;;5072685;28;19988;-68
2021/05/20 03:21:06;;;;;;;;;;;4.60;98.20;;;;;;5062502;28;19923;-67
2021/05/20 03:23:32;;;;;;;;;;;4.60;98.20;;;;;;5064286;28;19924;-67
2021/05/20 03:25:57;;;;;;;;;;;4.60;98.20;;;;;;5064658;28;19917;-67
2021/05/20 03:28:23;;;;;;;;;;;4.60;98.30;;;;;;5066469;28;19933;-67
2021/05/20 03:30:48;;;;;;;;;;;4.60;98.30;;;;;;5056750;28;19939;-67
2021/05/20 03:33:13;;;;;;;;;;;4.60;98.30;;;;;;5065276;28;19923;-67
2021/05/20 03:35:39;;;;;;;;;;;4.60;98.30;;;;;;5072553;28;20449;-67
2021/05/20 03:38:04;;;;;;;;;;;4.60;98.30;;;;;;5065160;28;20371;-67
2021/05/20 03:40:30;;;;;;;;;;;4.60;98.40;;;;;;5065813;28;19915;-67
2021/05/20 03:42:55;;;;;;;;;;;4.60;98.30;;;;;;5060800;28;20539;-67
2021/05/20 03:45:21;;;;;;;;;;;4.60;98.40;;;;;;5049122;28;19918;-67
2021/05/20 03:47:46;;;;;;;;;;;4.70;98.40;;;;;;5060098;28;19990;-67
2021/05/20 03:50:12;;;;;;;;;;;4.70;98.40;;;;;;5063756;28;19931;-68
2021/05/20 03:52:38;;;;;;;;;;;4.70;98.40;;;;;;5047857;28;20062;-67
2021/05/20 03:55:04;;;;;;;;;;;4.70;98.40;;;;;;5062148;28;20039;-67
2021/05/20 03:57:29;;;;;;;;;;;4.70;98.40;;;;;;5065024;28;20328;-67
2021/05/20 03:59:55;;;;;;;;;;;4.70;98.40;;;;;;5062687;28;19932;-68
2021/05/20 04:02:20;;;;;;;;;;;4.70;98.40;;;;;;5066001;28;19985;-66
2021/05/20 04:04:46;;;;;;;;;;;4.70;98.40;;;;;;5064345;28;19968;-67
2021/05/20 04:07:11;;;;;;;;;;;4.70;98.40;;;;;;5065400;28;19931;-67
2021/05/20 04:09:37;;;;;;;;;;;4.70;98.40;;;;;;5064346;28;19981;-66
2021/05/20 04:12:02;;;;;;;;;;;4.80;98.40;;;;;;5071821;28;19987;-66
2021/05/20 04:14:28;;;;;;;;;;;4.80;98.40;;;;;;5064792;28;20153;-67
2021/05/20 04:16:53;;;;;;;;;;;4.80;98.40;;;;;;5064624;28;19913;-67
2021/05/20 04:19:19;;;;;;;;;;;4.80;98.40;;;;;;5063477;28;20543;-68
2021/05/20 04:21:44;;;;;;;;;;;4.80;98.40;;;;;;5063320;28;19917;-67
2021/05/20 04:24:10;;;;;;;;;;;4.90;98.50;;;;;;5063714;28;20419;-67
2021/05/20 04:26:36;;;;;;;;;;;5.00;98.40;;;;;;5063940;28;20074;-67
2021/05/20 04:29:01;;;;;;;;;;;5.00;98.40;;;;;;5061292;28;19920;-69
2021/05/20 04:31:27;;;;;;;;;;;5.00;98.40;;;;;;5064489;28;20120;-68
2021/05/20 04:33:52;;;;;;;;;;;5.10;98.40;;;;;;5061871;28;19994;-69
2021/05/20 04:36:18;;;;;;;;;;;5.10;98.40;;;;;;5063296;28;19982;-70
2021/05/20 04:38:43;;;;;;;;;;;5.20;98.50;;;;;;5064272;28;20186;-67
2021/05/20 04:41:09;;;;;;;;;;;5.30;98.50;;;;;;5062634;28;19912;-68
2021/05/20 04:43:34;;;;;;;;;;;5.40;98.50;;;;;;5063393;28;20412;-68
2021/05/20 04:46:00;;;;;;;;;;;5.40;98.40;;;;;;5063495;28;20361;-66
2021/05/20 04:48:25;;;;;;;;;;;5.40;98.40;;;;;;5045505;28;19939;-68
2021/05/20 04:50:51;;;;;;;;;;;5.50;98.40;;;;;;5063646;28;19921;-70
2021/05/20 04:53:16;;;;;;;;;;;5.50;98.40;;;;;;5064204;28;19927;-67
2021/05/20 04:55:42;;;;;;;;;;;5.60;98.40;;;;;;5069157;28;20440;-67
2021/05/20 04:58:07;;;;;;;;;;;5.60;98.40;;;;;;5061010;28;20007;-68
2021/05/20 05:00:33;;;;;;;;;;;5.60;98.40;;;;;;5061642;28;19924;-67
2021/05/20 05:02:58;;;;;;;;;;;5.70;98.30;;;;;;5061473;28;19950;-68
2021/05/20 05:05:24;;;;;;;;;;;5.80;98.40;;;;;;5062280;28;20377;-69
2021/05/20 05:07:50;;;;;;;;;;;5.80;98.40;;;;;;5061520;28;19973;-70
2021/05/20 05:10:15;;;;;;;;;;;5.90;98.50;;;;;;5070899;28;19961;-68
2021/05/20 05:12:41;;;;;;;;;;;6.00;98.40;;;;;;5065436;28;20142;-67
2021/05/20 05:15:08;;;;;;;;;;;6.10;98.40;;;;;;5065847;28;19916;-68
2021/05/20 05:17:34;;;;;;;;;;;6.20;98.50;;;;;;5069668;28;19973;-67
2021/05/20 05:19:59;;;;;;;;;;;6.30;98.40;;;;;;5066803;28;19924;-68
2021/05/20 05:22:25;;;;;;;;;;;6.40;98.40;;;;;;5067305;28;20275;-69
2021/05/20 05:24:50;;;;;;;;;;;6.50;98.30;;;;;;5072078;28;20285;-67
2021/05/20 05:27:16;;;;;;;;;;;6.60;98.30;;;;;;5068007;28;19919;-68
2021/05/20 05:29:43;;;;;;;;;;;6.80;98.20;;;;;;5042506;28;19924;-69
2021/05/20 05:32:09;;;;;;;;;;;6.90;98.20;;;;;;5070810;28;19992;-67
2021/05/20 05:34:34;;;;;;;;;;;7.00;98.10;;;;;;5070655;28;20302;-68
2021/05/20 05:37:01;;;;;;;;;;;7.10;98.00;;;;;;5072577;28;20085;-69
2021/05/20 05:39:27;;;;;;;;;;;7.10;97.70;;;;;;5068926;28;19945;-68
2021/05/20 05:41:53;;;;;;;;;;;7.30;97.70;;;;;;5069934;28;19916;-68
2021/05/20 05:44:18;;;;;;;;;;;7.40;97.50;;;;;;5068586;28;19973;-70
2021/05/20 05:46:44;;;;;;;;;;;7.50;97.40;;;;;;5050443;28;19931;-67
2021/05/20 05:49:18;;;;;;;;;;;7.70;97.40;;;;;;5061590;28;20328;-68
2021/05/20 05:51:57;;;;;;;;;;;7.80;97.20;;;;;;5062138;28;19931;-68
2021/05/20 05:54:23;;;;;;;;;;;8.00;97.00;;;;;;5065564;28;19981;-67
2021/05/20 05:56:48;;;;;;;;;;;8.10;96.50;;;;;;5074556;28;19927;-67
2021/05/20 05:59:14;;;;;;;;;;;8.30;96.60;;;;;;5069983;28;19944;-67
2021/05/20 06:01:40;;;;;;;;;;;8.30;95.80;;;;;;5068205;28;20003;-70
2021/05/20 06:04:09;;;;;;;;;;;8.50;95.50;;;;;;5066781;28;19928;-66
2021/05/20 06:06:35;;;;;;;;;;;8.60;94.90;;;;;;5062810;28;19920;-68
2021/05/20 06:09:00;;;;;;;;;;;8.90;94.70;;;;;;5069837;28;20472;-67
2021/05/20 06:11:26;;;;;;;;;;;9.10;94.70;;;;;;5044699;28;19991;-68
2021/05/20 06:13:51;;;;;;;;;;;9.30;94.30;;;;;;5066523;28;19935;-68
2021/05/20 06:16:17;;;;;;;;;;;9.50;93.10;;;;;;5060965;28;19981;-67
2021/05/20 06:18:42;;;;;;;;;;;9.60;93.00;;;;;;5064788;28;19965;-69
2021/05/20 06:21:08;;;;;;;;;;;9.70;92.60;;;;;;5046884;28;19920;-68
2021/05/20 06:23:33;;;;;;;;;;;9.80;91.60;;;;;;5070474;28;19923;-67
2021/05/20 06:25:59;;;;;;;;;;;10.00;91.10;;;;;;5065046;28;19917;-68
2021/05/20 06:28:25;;;;;;;;;;;10.00;90.30;;;;;;5067278;28;20667;-69
2021/05/20 06:30:51;;;;;;;;;;;10.10;90.10;;;;;;5072349;28;19943;-67
2021/05/20 06:33:19;;;;;;;;;;;10.40;90.40;;;;;;5069039;28;20326;-68
2021/05/20 06:35:45;;;;;;;;;;;10.60;89.80;;;;;;5065965;28;19935;-68
2021/05/20 06:38:10;;;;;;;;;;;10.60;87.90;;;;;;5061850;28;19920;-68
2021/05/20 06:40:36;;;;;;;;;;;10.70;87.50;;;;;;5065047;28;20082;-68
2021/05/20 06:43:01;;;;;;;;;;;10.70;86.50;;;;;;5068695;28;19931;-67
2021/05/20 06:45:27;;;;;;;;;;;10.90;87.20;;;;;;5066291;28;19913;-68
2021/05/20 06:47:53;;;;;;;;;;;11.00;87.00;;;;;;5068049;28;19974;-67
2021/05/20 06:50:19;;;;;;;;;;;10.90;86.30;;;;;;5070266;28;20024;-68
2021/05/20 06:52:45;;;;;;;;;;;11.00;85.20;;;;;;5067527;28;20375;-67
2021/05/20 06:55:10;;;;;;;;;;;11.30;85.00;;;;;;5065557;28;19909;-67
2021/05/20 07:00:20;;;;;;;;;;;11.70;83.00;;;;;;5065131;28;19923;-68
2021/05/20 07:02:46;;;;;;;;;;;11.40;83.30;;;;;;5066699;28;20306;-68
2021/05/20 07:05:12;;;;;;;;;;;11.40;83.50;;;;;;5065053;28;19925;-68
2021/05/20 07:07:38;;;;;;;;;;;12.00;82.90;;;;;;5068409;28;19916;-67
2021/05/20 07:10:05;;;;;;;;;;;11.90;82.40;;;;;;5063458;28;19987;-68
2021/05/20 07:12:30;;;;;;;;;;;11.80;82.80;;;;;;5067028;28;19912;-69
2021/05/20 07:14:57;;;;;;;;;;;11.80;82.50;;;;;;5064593;28;19920;-68
2021/05/20 07:17:23;;;;;;;;;;;11.80;82.60;;;;;;5068162;28;19916;-69
2021/05/20 07:19:48;;;;;;;;;;;11.70;80.70;;;;;;5065212;28;20338;-67
2021/05/20 07:22:14;;;;;;;;;;;11.90;81.80;;;;;;5067083;28;19939;-68
2021/05/20 07:24:40;;;;;;;;;;;11.90;79.60;;;;;;5048207;28;19923;-68
2021/05/20 07:27:05;;;;;;;;;;;11.70;78.90;;;;;;5064745;28;19936;-69
2021/05/20 07:29:31;;;;;;;;;;;12.00;79.90;;;;;;5066680;28;19913;-68
2021/05/20 07:31:57;;;;;;;;;;;12.00;78.20;;;;;;5064685;28;19936;-68
2021/05/20 07:34:22;;;;;;;;;;;12.00;78.50;;;;;;5066266;28;19912;-67
2021/05/20 07:36:48;;;;;;;;;;;12.30;78.80;;;;;;5061342;28;19918;-70
2021/05/20 07:39:15;;;;;;;;;;;12.60;77.30;;;;;;5063873;28;19917;-68
2021/05/20 07:41:41;;;;;;;;;;;12.40;76.10;;;;;;5064436;28;19938;-69
2021/05/20 07:44:07;;;;;;;;;;;12.50;78.00;;;;;;5062339;28;19951;-68
2021/05/20 07:46:32;;;;;;;;;;;12.30;78.60;;;;;;5063354;28;19935;-67
2021/05/20 07:48:58;;;;;;;;;;;12.60;78.70;;;;;;5065597;28;19947;-69
2021/05/20 07:51:23;;;;;;;;;;;12.70;78.50;;;;;;5064297;28;20216;-69
2021/05/20 07:53:49;;;;;;;;;;;12.30;76.40;;;;;;5061364;28;19917;-70
2021/05/20 07:56:15;;;;;;;;;;;12.50;77.50;;;;;;5065153;28;19986;-68
2021/05/20 07:58:40;;;;;;;;;;;12.40;76.30;;;;;;5065282;28;20349;-68
2021/05/20 08:01:06;;;;;;;;;;;12.30;77.00;;;;;;5073504;28;19984;-68
2021/05/20 08:03:45;;;;;;;;;;;12.40;77.40;;;;;;5069744;28;19935;-69
2021/05/20 08:06:22;;;;;;;;;;;12.80;76.90;;;;;;5066622;28;20138;-68
2021/05/20 08:08:53;;;;;;;;;;;13.40;74.90;;;;;;5065317;28;19916;-69
2021/05/20 08:11:19;;;;;;;;;;;13.40;71.60;;;;;;5064021;28;19960;-68
2021/05/20 08:13:44;;;;;;;;;;;13.60;72.40;;;;;;5064867;28;20029;-70
2021/05/20 08:16:10;;;;;;;;;;;14.00;71.70;;;;;;5063254;28;20054;-68
2021/05/20 08:18:36;;;;;;;;;;;13.90;71.40;;;;;;5063032;28;19923;-68
2021/05/20 08:21:02;;;;;;;;;;;13.50;73.10;;;;;;5059618;28;19913;-69
2021/05/20 08:23:27;;;;;;;;;;;13.20;72.50;;;;;;5070202;28;19977;-67
2021/05/20 08:25:53;;;;;;;;;;;13.20;72.90;;;;;;5045011;28;20389;-69
2021/05/20 08:28:19;;;;;;;;;;;13.70;72.20;;;;;;5065826;28;20383;-69
2021/05/20 08:30:44;;;;;;;;;;;13.90;72.80;;;;;;5065417;28;20003;-69
2021/05/20 08:33:10;;;;;;;;;;;14.00;72.10;;;;;;5075029;28;19939;-69
2021/05/20 08:35:36;;;;;;;;;;;13.80;69.70;;;;;;5063568;28;19965;-70
2021/05/20 08:38:02;;;;;;;;;;;13.80;70.40;;;;;;5068504;28;19916;-69
2021/05/20 08:40:27;;;;;;;;;;;13.80;72.20;;;;;;5071667;28;19916;-68
2021/05/20 08:42:53;;;;;;;;;;;13.70;71.70;;;;;;5064868;28;19928;-69
2021/05/20 08:45:18;;;;;;;;;;;13.10;70.00;;;;;;5070113;28;19912;-69
2021/05/20 08:47:44;;;;;;;;;;;13.80;69.50;;;;;;5061746;28;19921;-69
2021/05/20 08:50:10;;;;;;;;;;;14.20;68.70;;;;;;5066617;28;20321;-69
2021/05/20 08:52:37;;;;;;;;;;;13.50;71.90;;;;;;5067762;28;20027;-69
2021/05/20 08:55:03;;;;;;;;;;;13.30;72.40;;;;;;5060835;28;20011;-68
2021/05/20 08:57:28;;;;;;;;;;;13.10;73.60;;;;;;5068465;28;19978;-69
2021/05/20 08:59:54;;;;;;;;;;;13.60;73.10;;;;;;5066190;28;19928;-68
2021/05/20 09:02:26;;;;;;;;;;;14.00;69.60;;;;;;5060930;28;20237;-70
2021/05/20 09:04:59;;;;;;;;;;;14.20;67.40;;;;;;5061635;28;19920;-69
2021/05/20 09:07:31;;;;;;;;;;;14.60;67.00;;;;;;5063122;28;19913;-69
2021/05/20 09:10:16;;;;;;;;;;;14.80;65.20;;;;;;5058175;28;20056;-70
2021/05/20 09:12:42;;;;;;;;;;;15.40;66.50;;;;;;5064261;28;19967;-70
2021/05/20 09:15:15;;;;;;;;;;;14.90;65.40;;;;;;5062777;28;19952;-69
2021/05/20 09:17:41;;;;;;;;;;;14.70;64.70;;;;;;5058211;28;19913;-70
2021/05/20 09:20:07;;;;;;;;;;;15.00;62.30;;;;;;5072535;28;20437;-70
2021/05/20 09:22:32;;;;;;;;;;;14.50;63.00;;;;;;5064655;28;19956;-70
2021/05/20 09:24:59;;;;;;;;;;;15.30;62.90;;;;;;5061430;28;19928;-69
2021/05/20 09:27:26;;;;;;;;;;;15.10;61.40;;;;;;5062696;28;19916;-69
2021/05/20 09:30:07;;;;;;;;;;;15.30;60.90;;;;;;5046472;28;19936;-71
2021/05/20 09:32:35;;;;;;;;;;;14.90;64.60;;;;;;5065212;28;19916;-70
2021/05/20 09:35:02;;;;;;;;;;;14.20;65.20;;;;;;5057615;28;19908;-69
2021/05/20 09:37:28;;;;;;;;;;;14.10;65.80;;;;;;5065971;28;20861;-70
2021/05/20 09:40:00;;;;;;;;;;;14.30;65.40;;;;;;5061846;28;19916;-68
2021/05/20 09:42:28;;;;;;;;;;;14.00;65.30;;;;;;5065353;28;19916;-70
2021/05/20 09:44:53;;;;;;;;;;;14.00;65.80;;;;;;5062565;28;20041;-68
2021/05/20 09:47:19;;;;;;;;;;;14.20;66.10;;;;;;5073078;28;20426;-70
2021/05/20 09:49:59;;;;;;;;;;;14.20;66.50;;;;;;5064126;28;20310;-70
2021/05/20 09:52:25;;;;;;;;;;;14.00;67.10;;;;;;5062208;28;19967;-70
2021/05/20 09:54:51;;;;;;;;;;;13.70;67.40;;;;;;5064797;28;20205;-70
2021/05/20 09:57:29;;;;;;;;;;;14.30;66.40;;;;;;5069584;28;20393;-69
2021/05/20 10:00:05;;;;;;;;;;;14.70;63.90;;;;;;5075807;28;19986;-68
2021/05/20 10:02:32;;;;;;;;;;;15.10;62.90;;;;;;5079118;28;19912;-69
2021/05/20 10:04:58;;;;;;;;;;;14.60;65.50;;;;;;5067185;28;19925;-68
2021/05/20 10:07:27;;;;;;;;;;;14.30;65.20;;;;;;5067826;28;19916;-70
2021/05/20 10:09:54;;;;;;;;;;;14.10;64.60;;;;;;5048042;28;20003;-69
2021/05/20 10:12:19;;;;;;;;;;;13.80;65.70;;;;;;5068360;28;19934;-69
2021/05/20 10:14:47;;;;;;;;;;;13.70;67.00;;;;;;5064795;28;19920;-70
2021/05/20 10:17:13;;;;;;;;;;;13.60;68.00;;;;;;5067535;28;19912;-68
2021/05/20 10:19:39;;;;;;;;;;;13.60;68.10;;;;;;5061867;28;19932;-71
2021/05/20 10:22:05;;;;;;;;;;;13.60;69.20;;;;;;5066278;28;19921;-69
2021/05/20 10:24:31;;;;;;;;;;;14.30;70.40;;;;;;5065748;28;20119;-68
2021/05/20 10:26:57;;;;;;;;;;;15.10;65.80;;;;;;5065640;28;20135;-69
2021/05/20 10:29:22;;;;;;;;;;;16.00;64.70;;;;;;5065678;28;20372;-68
2021/05/20 10:31:48;;;;;;;;;;;15.60;61.60;;;;;;5066930;28;19916;-70
2021/05/20 10:34:15;;;;;;;;;;;15.30;63.10;;;;;;5070629;28;20003;-69
2021/05/20 10:36:55;;;;;;;;;;;14.80;60.40;;;;;;5067984;28;19961;-69
2021/05/20 10:39:20;;;;;;;;;;;14.50;62.90;;;;;;5065247;28;19999;-71
2021/05/20 10:41:46;;;;;;;;;;;14.70;62.30;;;;;;5063025;28;20031;-69
2021/05/20 10:44:12;;;;;;;;;;;15.40;61.90;;;;;;5063429;28;19921;-70
2021/05/20 10:46:56;;;;;;;;;;;16.10;60.10;;;;;;5061953;28;19923;-69
2021/05/20 10:49:41;;;;;;;;;;;16.50;57.20;;;;;;5063179;28;19928;-67
2021/05/20 10:52:27;;;;;;;;;;;17.20;57.20;;;;;;5063285;28;19956;-70
2021/05/20 10:55:00;;;;;;;;;;;17.70;57.10;;;;;;5080134;28;19955;-70
2021/05/20 10:57:44;;;;;;;;;;;17.10;56.40;;;;;;5069292;28;19935;-70
2021/05/20 11:00:28;;;;;;;;;;;16.20;54.80;;;;;;5062738;28;19916;-69
2021/05/20 11:02:54;;;;;;;;;;;15.80;55.70;;;;;;5067438;28;19916;-70
2021/05/20 11:05:38;;;;;;;;;;;15.60;56.20;;;;;;5068982;28;19912;-68
2021/05/20 11:08:03;;;;;;;;;;;15.50;57.70;;;;;;5065169;28;19912;-69
2021/05/20 11:10:35;;;;;;;;;;;15.30;59.60;;;;;;5064464;28;19932;-69
2021/05/20 11:13:00;;;;;;;;;;;15.10;60.70;;;;;;5062069;28;19916;-70
2021/05/20 11:15:26;;;;;;;;;;;15.00;59.80;;;;;;5063568;28;19922;-69
2021/05/20 11:17:52;;;;;;;;;;;15.00;60.90;;;;;;5062866;28;19963;-68
2021/05/20 11:20:23;;;;;;;;;;;14.90;63.80;;;;;;5068481;28;20411;-70
2021/05/20 11:23:07;;;;;;;;;;;14.30;68.60;;;;;;5064504;28;20249;-70
2021/05/20 11:25:32;;;;;;;;;;;13.90;70.60;;;;;;5063207;28;19957;-69
2021/05/20 11:28:00;;;;;;;;;;;13.70;71.10;;;;;;5059771;28;21652;-69
2021/05/20 11:30:25;;;;;;;;;;;13.60;71.40;;;;;;5075392;28;19920;-70
2021/05/20 11:32:54;;;;;;;;;;;13.50;72.40;;;;;;5071287;28;19916;-69
2021/05/20 11:35:36;;;;;;;;;;;13.70;72.40;;;;;;5070365;28;20015;-68
2021/05/20 11:38:02;;;;;;;;;;;14.10;71.10;;;;;;5055633;28;19920;-68
2021/05/20 11:40:28;;;;;;;;;;;15.20;68.50;;;;;;5064477;28;19912;-68
2021/05/20 11:42:55;;;;;;;;;;;16.00;61.60;;;;;;5074150;28;20245;-69
2021/05/20 11:45:28;;;;;;;;;;;16.90;55.60;;;;;;5063836;28;19909;-69
2021/05/20 11:48:00;;;;;;;;;;;16.90;52.10;;;;;;5062377;28;19919;-69
2021/05/20 11:50:27;;;;;;;;;;;17.30;50.30;;;;;;5074669;28;20056;-69
2021/05/20 11:52:53;;;;;;;;;;;17.60;49.60;;;;;;5069527;28;19986;-70
2021/05/20 11:55:20;;;;;;;;;;;17.50;46.50;;;;;;5064447;28;19913;-70
2021/05/20 11:57:46;;;;;;;;;;;17.40;46.30;;;;;;5065770;28;20015;-70
2021/05/20 12:00:12;;;;;;;;;;;17.70;46.90;;;;;;5066780;28;19964;-70
2021/05/20 12:02:39;;;;;;;;;;;18.00;46.50;;;;;;5042563;28;20023;-70
2021/05/20 12:05:06;;;;;;;;;;;18.60;48.20;;;;;;5060484;28;20031;-71
2021/05/20 12:07:33;;;;;;;;;;;18.40;48.80;;;;;;5058864;28;19912;-70
2021/05/20 12:10:18;;;;;;;;;;;17.50;49.00;;;;;;5063788;28;19912;-70
2021/05/20 12:12:59;;;;;;;;;;;16.80;52.10;;;;;;5065525;28;19921;-70
2021/05/20 12:15:26;;;;;;;;;;;16.30;52.90;;;;;;5066252;28;19947;-69
2021/05/20 12:17:54;;;;;;;;;;;16.20;55.30;;;;;;5066798;28;19973;-69
2021/05/20 12:20:20;;;;;;;;;;;16.00;56.50;;;;;;5062213;28;19921;-71
2021/05/20 12:22:46;;;;;;;;;;;15.70;58.50;;;;;;5060210;28;20023;-68
2021/05/20 12:25:15;;;;;;;;;;;15.40;62.50;;;;;;5063755;28;19984;-69
2021/05/20 12:27:43;;;;;;;;;;;15.30;62.10;;;;;;5059548;28;20628;-70
2021/05/20 12:30:08;;;;;;;;;;;15.60;63.90;;;;;;5062452;28;19967;-69
2021/05/20 12:32:35;;;;;;;;;;;16.30;61.30;;;;;;5060698;28;19978;-70
2021/05/20 12:35:20;;;;;;;;;;;16.40;57.30;;;;;;5056133;28;19942;-69
2021/05/20 12:37:50;;;;;;;;;;;16.50;56.50;;;;;;5065296;28;19921;-69
2021/05/20 12:40:17;;;;;;;;;;;17.20;55.90;;;;;;5076550;28;20372;-69
2021/05/20 12:42:43;;;;;;;;;;;18.10;50.40;;;;;;5058682;28;20004;-69
2021/05/20 12:45:09;;;;;;;;;;;18.70;50.10;;;;;;5059946;28;20465;-70
2021/05/20 12:47:45;;;;;;;;;;;17.50;47.30;;;;;;5056091;28;19917;-69
2021/05/20 12:50:10;;;;;;;;;;;16.80;46.70;;;;;;5059629;28;19917;-69
2021/05/20 12:52:56;;;;;;;;;;;16.60;51.20;;;;;;5063315;28;19924;-69
2021/05/20 12:55:35;;;;;;;;;;;17.30;49.80;;;;;;5060004;28;20131;-69
2021/05/20 12:58:01;;;;;;;;;;;18.50;47.80;;;;;;5064906;28;19931;-70
2021/05/20 13:00:28;;;;;;;;;;;19.30;44.30;;;;;;5055558;28;19935;-69
2021/05/20 13:02:57;;;;;;;;;;;18.90;43.70;;;;;;5059382;28;19923;-70
2021/05/20 13:05:24;;;;;;;;;;;19.60;43.10;;;;;;5062572;28;19913;-68
2021/05/20 13:07:49;;;;;;;;;;;18.30;42.10;;;;;;5061879;28;20374;-67
2021/05/20 13:10:30;;;;;;;;;;;18.50;43.10;;;;;;5042843;28;19920;-68
2021/05/20 13:12:55;;;;;;;;;;;17.60;45.20;;;;;;5059670;28;19921;-66
2021/05/20 13:15:21;;;;;;;;;;;17.50;46.00;;;;;;5061269;28;19989;-69
2021/05/20 13:22:59;;;;;;;;;;;18.20;45.90;;;;;;5059743;28;19922;-69
2021/05/20 13:25:24;;;;;;;;;;;18.60;47.40;;;;;;5061626;28;19916;-67
2021/05/20 13:27:50;;;;;;;;;;;18.60;47.00;;;;;;5064845;28;19935;-69
2021/05/20 13:30:35;;;;;;;;;;;19.20;45.30;;;;;;5067582;28;19956;-67
2021/05/20 13:33:08;;;;;;;;;;;20.10;43.40;;;;;;5065334;28;19951;-68
2021/05/20 13:35:34;;;;;;;;;;;19.50;41.70;;;;;;5064730;28;19920;-68
2021/05/20 13:37:59;;;;;;;;;;;19.10;42.60;;;;;;5071657;28;20038;-68
2021/05/20 13:40:27;;;;;;;;;;;19.60;40.70;;;;;;5064525;28;19920;-68
2021/05/20 13:42:54;;;;;;;;;;;20.00;36.10;;;;;;5063987;28;19916;-67
2021/05/20 13:45:21;;;;;;;;;;;20.50;37.50;;;;;;5063924;28;20015;-68
2021/05/20 13:47:47;;;;;;;;;;;19.70;38.90;;;;;;5058893;28;19923;-67
2021/05/20 13:50:13;;;;;;;;;;;20.60;39.30;;;;;;5063516;28;19991;-68
2021/05/20 13:52:41;;;;;;;;;;;20.50;36.80;;;;;;5062106;28;19924;-69
2021/05/20 13:55:07;;;;;;;;;;;20.80;37.40;;;;;;5068161;28;19928;-70
2021/05/20 13:57:33;;;;;;;;;;;20.80;39.50;;;;;;5061400;28;19912;-68
2021/05/20 13:59:59;;;;;;;;;;;20.90;37.40;;;;;;5045807;28;20401;-68
2021/05/20 14:02:33;;;;;;;;;;;20.50;38.00;;;;;;5064035;28;20046;-68
2021/05/20 14:04:59;;;;;;;;;;;20.80;36.90;;;;;;5057697;28;20376;-68
2021/05/20 14:07:24;;;;;;;;;;;20.80;37.30;;;;;;5062688;28;19980;-68
2021/05/20 14:09:50;;;;;;;;;;;21.30;37.20;;;;;;5058734;28;19921;-69
2021/05/20 14:12:17;;;;;;;;;;;20.20;37.60;;;;;;5058905;28;19923;-68
2021/05/20 14:14:46;;;;;;;;;;;19.20;38.70;;;;;;5063859;28;19912;-69
2021/05/20 14:17:12;;;;;;;;;;;18.80;40.90;;;;;;5062295;28;20377;-67
2021/05/20 14:19:39;;;;;;;;;;;18.50;41.60;;;;;;5063440;28;19916;-67
2021/05/20 14:22:04;;;;;;;;;;;18.50;42.50;;;;;;5063725;28;20278;-68
2021/05/20 14:24:30;;;;;;;;;;;19.70;41.40;;;;;;5062412;28;20139;-68
2021/05/20 14:26:56;;;;;;;;;;;19.90;39.80;;;;;;5064495;28;20077;-68
2021/05/20 14:29:22;;;;;;;;;;;20.40;38.50;;;;;;5064399;28;20269;-66
2021/05/20 14:31:48;;;;;;;;;;;19.20;40.80;;;;;;5064993;28;19912;-68